Flight Track Log - Related Links

Times and Time Zones

All times are in EDT time to prevent confusion due to time zone crossing. See the RPA3161 flight status page for this flight to view local times or setup timezone preferences in your user account.

Time Position Orientation Groundspeed Altitude Reporting Facility
EDT Latitude Longitude Course Direction KTS MPH feet Rate Location/Type
Wed 12:47:51 PM 44.3497 -73.3081 235° Southwest 291 335 8,600  Level Boston Center
Wed 12:48:00 PM 44.2711 -73.6233 238° Southwest  Level FlightAware Approximate
Wed 12:48:51 PM 44.3094 -73.4061 240° Southwest 291 335 10,900  Level Boston Center
Wed 12:49:00 PM 44.2216 -73.7418 240° Southwest  Level FlightAware Approximate
Wed 12:49:51 PM 44.2667 -73.5214 243° Southwest 319 367 13,100  Level Boston Center
Wed 12:50:00 PM 44.1725 -73.8605 241° Southwest  Level FlightAware Approximate
Wed 12:50:51 PM 44.2197 -73.6394 241° Southwest 347 399 15,600  Level Boston Center
Wed 12:51:00 PM 44.1248 -73.9803 241° Southwest  Level FlightAware Approximate
Wed 12:51:51 PM 44.1683 -73.7656 240° Southwest 363 418 17,500  Level Boston Center
Wed 12:52:00 PM 44.0769 -74.0998 241° Southwest  Level FlightAware Approximate
Wed 12:52:51 PM 44.1167 -73.8975 241° Southwest 382 440 19,300  Level Boston Center
Wed 12:53:00 PM 44.0254 -74.2160 235° Southwest  Level FlightAware Approximate
Wed 12:53:51 PM 44.0628 -74.0319 241° Southwest 396 456 21,100  Level Boston Center
Wed 12:54:51 PM 44.0067 -74.1719 241° Southwest 407 468 22,700 1,600 Climbing Boston Center
Wed 12:55:51 PM 43.9503 -74.3144 241° Southwest 419 482 24,300 1,550 Climbing Boston Center
Wed 12:56:51 PM 43.8936 -74.4569 241° Southwest 419 482 25,800 1,350 Climbing Boston Center
Wed 12:57:51 PM 43.8325 -74.6044 240° Southwest 431 496 27,000 1,350 Climbing Boston Center
Wed 12:58:51 PM 43.7667 -74.7689 241° Southwest 444 511 28,500 1,200 Climbing Boston Center
Wed 12:59:51 PM 43.7053 -74.9158 240° Southwest 449 517 29,400 750 Climbing Boston Center
Wed 01:00:51 PM 43.6436 -75.0656 240° Southwest 449 517 30,000 300 Climbing Boston Center
Wed 01:01:51 PM 43.5794 -75.2203 240° Southwest 457 526 30,000  Level Boston Center
Wed 01:03:03 PM 43.5153 -75.3778 241° Southwest 457 526 30,000  Level Boston Center
Wed 01:04:03 PM 43.4372 -75.5628 240° Southwest 462 532 30,000  Level Boston Center
Wed 01:05:03 PM 43.3725 -75.7167 240° Southwest 468 539 30,000  Level Boston Center
Wed 01:06:03 PM 43.3053 -75.8756 240° Southwest 473 544 30,000  Level Boston Center
Wed 01:12:19 PM 42.7081 -76.5736 221° Southwest 470 541 30,000  Level New York Center
Wed 01:13:16 PM 42.6081 -76.6606 213° Southwest 475 547 30,000  Level New York Center
Wed 01:14:17 PM 42.4975 -76.7492 211° Southwest 480 552 30,000  Level New York Center
Wed 01:15:16 PM 42.3867 -76.8400 211° Southwest 474 545 30,000  Level New York Center
Wed 01:16:17 PM 42.2761 -76.9281 211° Southwest 474 545 30,000  Level New York Center
Wed 01:17:17 PM 42.1628 -77.0208 211° Southwest 474 545 30,000 -446 Level New York Center
Wed 01:18:18 PM 42.0522 -77.1053 210° Southwest 474 545 29,100 -984 Descending New York Center
Wed 01:19:19 PM 41.9306 -77.2025 211° Southwest 474 545 28,000 -545 Descending New York Center
Wed 01:20:19 PM 41.8239 -77.2869 211° Southwest 469 540 28,000  Level New York Center
Wed 01:21:18 PM 41.7147 -77.3736 211° Southwest 469 540 28,000  Level New York Center
Wed 01:22:18 PM 41.6081 -77.4572 210° Southwest 469 540 28,000  Level New York Center
Wed 01:23:19 PM 41.4992 -77.5433 211° Southwest 469 540 28,000 -347 Level New York Center
Wed 01:24:19 PM 41.3944 -77.6242 210° Southwest 464 534 27,300 -966 Descending New York Center
Wed 01:25:17 PM 41.2961 -77.7025 211° Southwest 449 517 26,100 -1,373 Descending New York Center
Wed 01:26:17 PM 41.1914 -77.7800 209° Southwest 436 502 24,600 -1,438 Descending New York Center
Wed 01:27:18 PM 41.0933 -77.8553 210° Southwest 431 496 23,200 -1,300 Descending New York Center
Wed 01:28:17 PM 40.9967 -77.9003 199° South 382 440 22,000 -694 Descending New York Center
Wed 01:29:19 PM 40.9019 -77.8492 158° South 346 398 21,800 -605 Descending New York Center
Wed 01:30:16 PM 40.8119 -77.7850 152° Southeast 351 404 20,800 -1,000 Descending New York Center
Wed 01:31:19 PM 40.7197 -77.7208 152° Southeast 362 417 19,800 -893 Descending New York Center
Wed 01:32:17 PM 40.6275 -77.6594 153° Southeast 372 428 19,000 -915 Descending New York Center
Wed 01:33:17 PM 40.5333 -77.5928 152° Southeast 386 444 18,000 -504 Descending New York Center
Wed 01:34:16 PM 40.4433 -77.5292 152° Southeast 379 436 18,000  Level New York Center
Wed 01:35:17 PM 40.3489 -77.4656 153° Southeast 379 436 18,000  Level New York Center
Wed 01:36:17 PM 40.2647 -77.4058 152° Southeast 379 436 18,000  Level New York Center
Wed 01:37:18 PM 40.1644 -77.3336 151° Southeast 374 430 18,000  Level New York Center
Wed 01:38:19 PM 40.0822 -77.2769 152° Southeast 379 436 18,000  Level New York Center
Wed 01:39:17 PM 39.9794 -77.2078 153° Southeast 379 436 18,000 -303 Level New York Center
Wed 01:40:18 PM 39.8994 -77.1489 151° Southeast 379 436 17,400 -984 Descending New York Center
Wed 01:41:19 PM 39.8025 -77.0861 154° Southeast 374 430 16,000 -694 Descending New York Center
Wed 01:42:19 PM 39.7222 -77.0303 152° Southeast 368 423 16,000 -47 Level New York Center
Wed 01:43:26 PM 39.6000 -76.9500 153° Southeast 360 414 15,900 -1,500 Descending Potomac TRACON
Wed 01:44:27 PM 39.5167 -76.9000 155° Southeast 348 400 12,800 -1,934 Descending Potomac TRACON
Wed 01:45:27 PM 39.4333 -76.8333 148° Southeast 342 394 12,000 -550 Descending Potomac TRACON
Wed 01:46:27 PM 39.3500 -76.7833 155° Southeast 346 398 11,700 -991 Descending Potomac TRACON
Wed 01:47:22 PM 39.2833 -76.7333 150° Southeast 331 381 10,100 -887 Descending Potomac TRACON
Wed 01:48:22 PM 39.2167 -76.6833 150° Southeast 285 328 10,000 -100 Descending Potomac TRACON
Wed 01:49:22 PM 39.1500 -76.7167 201° Southwest 285 328 9,900 -397 Descending Potomac TRACON
Wed 01:50:23 PM 39.1167 -76.8167 247° West 278 320 9,200 -942 Descending Potomac TRACON
Wed 01:51:23 PM 39.0833 -76.9000 243° Southwest 274 315 8,000 -887 Descending Potomac TRACON
Wed 01:52:18 PM 39.0667 -76.9833 256° West 244 281 7,500 -991 Descending Potomac TRACON
Wed 01:53:18 PM 39.0667 -77.0667 270° West 228 262 6,100 -992 Descending Potomac TRACON
Wed 01:54:19 PM 39.0500 -77.1333 252° West 221 254 5,500 -645 Descending Potomac TRACON
Wed 01:55:19 PM 39.0333 -77.2000 252° West 172 198 4,800 -1,000 Descending Potomac TRACON
Wed 01:56:19 PM 39.0000 -77.1833 159° South 168 193 3,500 -1,190 Descending Potomac TRACON
Wed 01:57:25 PM 38.9500 -77.1333 142° Southeast 173 199 2,300 -1,039 Descending Potomac TRACON
Wed 01:58:26 PM 38.9167 -77.1000 142° Southeast 168 193 1,300 -984 Descending Potomac TRACON

Login

Don't have an account? Register now (free) for customized features, flight alerts, and more!